createdAt,value
2019-04-01T00:01:19.680Z,102118.75
2019-04-01T00:02:54.305Z,102114.02
2019-04-01T00:04:28.964Z,102117.44
2019-04-01T00:06:03.651Z,102120.69
2019-04-01T00:07:38.274Z,102120.48
2019-04-01T00:09:12.923Z,102122.29
2019-04-01T00:10:47.571Z,102112.81
2019-04-01T00:12:23.820Z,102122.45
2019-04-01T00:13:58.473Z,102122.70
2019-04-01T00:15:33.133Z,102122.55
2019-04-01T00:17:07.788Z,102120.91
2019-04-01T00:18:42.534Z,102117.47
2019-04-01T00:20:17.242Z,102121.64
2019-04-01T00:21:51.945Z,102118.52
2019-04-01T00:23:26.582Z,102125.32
2019-04-01T00:25:01.222Z,102127.56
2019-04-01T00:26:36.032Z,102117.20
2019-04-01T00:28:10.685Z,102120.48
2019-04-01T00:29:45.615Z,102116.89
2019-04-01T00:31:20.283Z,102117.25
2019-04-01T00:32:54.924Z,102115.49
2019-04-01T00:34:29.590Z,102120.11
2019-04-01T00:36:04.342Z,102120.48
2019-04-01T00:37:38.997Z,102119.34
2019-04-01T00:39:13.661Z,102118.03
2019-04-01T00:40:48.409Z,102118.13
2019-04-01T00:42:30.776Z,102120.66
2019-04-01T00:44:11.513Z,102115.06
2019-04-01T00:45:47.493Z,102114.63
2019-04-01T00:47:22.135Z,102117.58
2019-04-01T00:48:57.758Z,102116.22
2019-04-01T00:50:32.413Z,102112.72
2019-04-01T00:52:07.111Z,102110.56
2019-04-01T00:53:41.708Z,102110.41
2019-04-01T00:55:16.390Z,102109.58
2019-04-01T00:56:51.045Z,102105.84
2019-04-01T00:58:25.819Z,102112.48
2019-04-01T01:00:01.436Z,102107.82
2019-04-01T01:01:37.692Z,102105.47
2019-04-01T01:03:12.326Z,102106.59
2019-04-01T01:04:47.007Z,102102.56
2019-04-01T01:06:21.655Z,102104.52
2019-04-01T01:07:56.308Z,102104.89
2019-04-01T01:09:30.963Z,102111.15
2019-04-01T01:11:05.783Z,102106.92
2019-04-01T01:12:40.516Z,102100.45
2019-04-01T01:14:15.234Z,102108.86
2019-04-01T01:15:49.861Z,102105.05
2019-04-01T01:17:25.524Z,102099.44
2019-04-01T01:19:00.193Z,102099.76
2019-04-01T01:20:34.998Z,102105.47
2019-04-01T01:22:09.792Z,102101.81
2019-04-01T01:23:44.438Z,102106.20
2019-04-01T01:25:19.176Z,102105.63
2019-04-01T01:26:53.854Z,102105.47
2019-04-01T01:28:28.523Z,102104.77
2019-04-01T01:30:03.199Z,102105.96
2019-04-01T01:31:38.814Z,102102.19
2019-04-01T01:33:13.466Z,102102.84
2019-04-01T01:34:49.180Z,102100.75
2019-04-01T01:36:23.909Z,102102.59
2019-04-01T01:37:58.651Z,102097.79
2019-04-01T01:39:33.316Z,102097.99
2019-04-01T01:41:10.975Z,102100.09
2019-04-01T01:42:45.642Z,102094.71
2019-04-01T01:44:20.277Z,102098.73
2019-04-01T01:45:54.932Z,102096.47
2019-04-01T01:47:29.604Z,102094.66
2019-04-01T01:49:04.333Z,102094.09
2019-04-01T01:50:38.996Z,102097.22
2019-04-01T01:52:13.626Z,102102.97
2019-04-01T01:53:48.280Z,102098.77
2019-04-01T01:55:23.233Z,102095.73
2019-04-01T01:56:58.037Z,102099.48
2019-04-01T01:58:32.790Z,102099.10
2019-04-01T02:00:07.707Z,102098.16
2019-04-01T02:01:42.539Z,102092.17
2019-04-01T02:03:17.199Z,102098.66
2019-04-01T02:04:52.922Z,102099.10
2019-04-01T02:06:27.560Z,102097.61
2019-04-01T02:08:02.285Z,102096.83
2019-04-01T02:09:36.994Z,102096.05
2019-04-01T02:11:12.639Z,102092.80
2019-04-01T02:12:47.267Z,102093.42
2019-04-01T02:14:21.916Z,102096.05
2019-04-01T02:15:56.561Z,102094.95
2019-04-01T02:17:31.205Z,102091.17
2019-04-01T02:19:05.948Z,102089.19
2019-04-01T02:20:40.575Z,102093.22
2019-04-01T02:22:15.229Z,102090.80
2019-04-01T02:23:49.861Z,102090.13
2019-04-01T02:25:24.491Z,102085.48
2019-04-01T02:26:59.147Z,102079.70
2019-04-01T02:28:33.872Z,102082.13
2019-04-01T02:30:08.678Z,102082.69
2019-04-01T02:31:43.296Z,102081.37
2019-04-01T02:33:17.938Z,102084.69
2019-04-01T02:34:52.583Z,102082.85
2019-04-01T02:36:27.222Z,102080.45
2019-04-01T02:38:01.947Z,102080.59
2019-04-01T02:39:36.621Z,102085.64
2019-04-01T02:41:13.305Z,102086.03
2019-04-01T02:42:47.949Z,102089.28
2019-04-01T02:44:22.625Z,102081.50
2019-04-01T02:45:57.289Z,102078.58
2019-04-01T02:47:31.929Z,102083.08
2019-04-01T02:49:06.551Z,102087.08
2019-04-01T02:50:41.237Z,102085.77
2019-04-01T02:52:16.963Z,102080.72
2019-04-01T02:53:51.560Z,102081.42
2019-04-01T02:55:26.200Z,102081.25
2019-04-01T02:57:02.301Z,102082.98
2019-04-01T02:58:37.904Z,102081.67
2019-04-01T03:00:13.600Z,102078.35
2019-04-01T03:01:48.242Z,102068.13
2019-04-01T03:03:22.922Z,102069.91
2019-04-01T03:04:58.533Z,102070.53
2019-04-01T03:06:33.164Z,102074.23
2019-04-01T03:08:07.827Z,102070.13
2019-04-01T03:09:42.511Z,102076.11
2019-04-01T03:11:17.199Z,102073.49
2019-04-01T03:12:51.853Z,102068.63
2019-04-01T03:14:26.474Z,102068.08
2019-04-01T03:16:01.088Z,102071.52
2019-04-01T03:17:35.747Z,102069.03
2019-04-01T03:19:10.421Z,102072.67
2019-04-01T03:20:45.078Z,102069.91
2019-04-01T03:22:19.719Z,102067.97
2019-04-01T03:23:54.369Z,102069.91
2019-04-01T03:25:29.032Z,102075.45
2019-04-01T03:27:03.760Z,102072.97
2019-04-01T03:28:38.400Z,102079.31
2019-04-01T03:30:13.123Z,102073.82
2019-04-01T03:31:47.819Z,102082.67
2019-04-01T03:33:22.447Z,102081.33
2019-04-01T03:34:57.113Z,102074.52
2019-04-01T03:36:31.767Z,102081.13
2019-04-01T03:38:06.471Z,102078.53
2019-04-01T03:39:41.137Z,102082.47
2019-04-01T03:41:15.804Z,102079.91
2019-04-01T03:42:50.455Z,102077.73
2019-04-01T03:44:25.117Z,102081.84
2019-04-01T03:45:59.757Z,102079.20
2019-04-01T03:47:35.500Z,102086.73
2019-04-01T03:49:10.158Z,102076.41
2019-04-01T03:50:44.789Z,102086.38
2019-04-01T03:52:19.530Z,102085.75
2019-04-01T03:53:54.146Z,102086.09
2019-04-01T03:55:28.768Z,102084.63
2019-04-01T03:57:03.465Z,102081.86
2019-04-01T03:58:38.125Z,102087.88
2019-04-01T04:00:13.066Z,102087.44
2019-04-01T04:01:47.717Z,102081.84
2019-04-01T04:03:22.410Z,102082.50
2019-04-01T04:04:57.108Z,102086.22
2019-04-01T04:06:31.842Z,102079.03
2019-04-01T04:08:09.674Z,102078.55
2019-04-01T04:09:44.341Z,102082.98
2019-04-01T04:11:18.977Z,102073.04
2019-04-01T04:12:53.618Z,102078.45
2019-04-01T04:14:28.262Z,102075.10
2019-04-01T04:16:02.895Z,102072.66
2019-04-01T04:17:37.507Z,102078.52
2019-04-01T04:19:12.396Z,102075.88
2019-04-01T04:20:47.048Z,102078.02
2019-04-01T04:22:21.677Z,102078.72
2019-04-01T04:23:57.290Z,102073.11
2019-04-01T04:25:31.923Z,102072.48
2019-04-01T04:27:10.928Z,102072.48
2019-04-01T04:28:42.992Z,102074.28
2019-04-01T04:30:20.013Z,102071.61
2019-04-01T04:31:54.671Z,102073.13
2019-04-01T04:33:29.291Z,102072.12
2019-04-01T04:35:04.115Z,102070.13
2019-04-01T04:36:38.777Z,102075.41
2019-04-01T04:38:13.536Z,102072.59
2019-04-01T04:39:48.169Z,102073.79
2019-04-01T04:41:23.959Z,102078.52
2019-04-01T04:42:58.827Z,102075.10
2019-04-01T04:44:33.497Z,102076.23
2019-04-01T04:46:08.228Z,102078.88
2019-04-01T04:47:42.869Z,102073.66
2019-04-01T04:49:17.561Z,102070.05
2019-04-01T04:50:52.231Z,102067.37
2019-04-01T04:52:27.253Z,102072.15
2019-04-01T04:54:01.893Z,102069.05
2019-04-01T04:55:36.558Z,102072.68
2019-04-01T04:57:11.276Z,102073.99
2019-04-01T04:58:45.920Z,102072.80
2019-04-01T05:00:20.612Z,102071.20
2019-04-01T05:01:55.278Z,102075.29
2019-04-01T05:03:30.021Z,102078.10
2019-04-01T05:05:04.894Z,102075.57
2019-04-01T05:06:39.519Z,102077.21
2019-04-01T05:08:14.790Z,102076.57
2019-04-01T05:09:49.441Z,102074.22
2019-04-01T05:11:24.079Z,102082.20
2019-04-01T05:12:58.787Z,102079.95
2019-04-01T05:14:33.462Z,102088.27
2019-04-01T05:16:08.107Z,102084.84
2019-04-01T05:17:43.073Z,102086.98
2019-04-01T05:19:17.728Z,102082.20
2019-04-01T05:20:52.474Z,102086.09
2019-04-01T05:22:27.370Z,102086.09
2019-04-01T05:24:02.494Z,102092.33
2019-04-01T05:25:38.378Z,102084.19
2019-04-01T05:27:14.620Z,102087.19
2019-04-01T05:28:49.786Z,102088.09
2019-04-01T05:30:24.500Z,102094.92
2019-04-01T05:32:00.227Z,102093.98
2019-04-01T05:33:35.149Z,102092.95
2019-04-01T05:35:09.985Z,102099.09
2019-04-01T05:36:45.090Z,102104.18
2019-04-01T05:38:19.822Z,102101.53
2019-04-01T05:39:54.455Z,102110.03
2019-04-01T05:41:29.169Z,102103.12
2019-04-01T05:43:04.262Z,102104.11
2019-04-01T05:44:39.028Z,102106.16
2019-04-01T05:46:13.766Z,102100.18
2019-04-01T05:47:52.702Z,102107.11
2019-04-01T05:49:27.525Z,102102.02
2019-04-01T05:51:02.246Z,102102.36
2019-04-01T05:52:36.888Z,102100.56
2019-04-01T05:54:11.610Z,102109.13
2019-04-01T05:55:46.340Z,102112.97
2019-04-01T05:57:21.062Z,102108.00
2019-04-01T05:58:55.726Z,102108.23
2019-04-01T06:00:35.698Z,102105.92
2019-04-01T06:02:10.468Z,102113.47
2019-04-01T06:03:45.198Z,102119.97
2019-04-01T06:05:19.859Z,102116.16
2019-04-01T06:06:54.537Z,102112.62
2019-04-01T06:08:29.283Z,102115.97
2019-04-01T06:10:04.352Z,102117.72
2019-04-01T06:11:39.050Z,102123.92
2019-04-01T06:13:14.099Z,102120.63
2019-04-01T06:14:48.741Z,102119.39
2019-04-01T06:16:23.388Z,102117.27
2019-04-01T06:17:58.109Z,102115.85
2019-04-01T06:19:32.758Z,102118.41
2019-04-01T06:21:07.497Z,102125.22
2019-04-01T06:22:42.264Z,102119.57
2019-04-01T06:24:17.018Z,102121.37
2019-04-01T06:25:51.670Z,102116.16
2019-04-01T06:27:26.891Z,102123.90
2019-04-01T06:29:01.980Z,102118.47
2019-04-01T06:30:36.634Z,102128.20
2019-04-01T06:32:11.290Z,102128.20
2019-04-01T06:33:45.945Z,102124.95
2019-04-01T06:35:20.639Z,102127.94
2019-04-01T06:36:55.387Z,102121.87
2019-04-01T06:38:30.109Z,102125.30
2019-04-01T06:40:05.374Z,102130.17
2019-04-01T06:41:40.049Z,102132.23
2019-04-01T06:43:14.788Z,102132.23
2019-04-01T06:44:49.496Z,102122.03
2019-04-01T06:46:24.141Z,102126.90
2019-04-01T06:47:58.786Z,102127.00
2019-04-01T06:49:33.512Z,102125.88
2019-04-01T06:51:08.131Z,102125.88
2019-04-01T06:52:43.274Z,102124.22
2019-04-01T06:54:17.896Z,102123.05
2019-04-01T06:55:52.600Z,102119.75
2019-04-01T06:57:27.383Z,102131.17
2019-04-01T06:59:02.138Z,102117.95
2019-04-01T07:00:36.805Z,102127.84
2019-04-01T07:02:11.518Z,102125.70
2019-04-01T07:03:46.258Z,102121.14
2019-04-01T07:05:20.942Z,102123.91
2019-04-01T07:06:55.583Z,102135.14
2019-04-01T07:08:30.254Z,102120.44
2019-04-01T07:10:05.639Z,102120.98
2019-04-01T07:11:40.414Z,102124.73
2019-04-01T07:13:15.290Z,102126.35
2019-04-01T07:14:49.979Z,102126.35
2019-04-01T07:16:24.641Z,102120.79
2019-04-01T07:17:59.346Z,102120.79
2019-04-01T07:19:34.357Z,102128.09
2019-04-01T07:21:09.034Z,102130.66
2019-04-01T07:22:43.736Z,102126.58
2019-04-01T07:24:18.644Z,102128.05
2019-04-01T07:25:54.629Z,102128.66
2019-04-01T07:27:29.607Z,102131.95
2019-04-01T07:29:04.474Z,102131.43
2019-04-01T07:30:41.817Z,102131.43
2019-04-01T07:32:16.668Z,102135.23
2019-04-01T07:33:51.367Z,102131.63
2019-04-01T07:35:27.312Z,102133.68
2019-04-01T07:37:02.400Z,102123.87
2019-04-01T07:38:37.168Z,102123.87
2019-04-01T07:40:13.944Z,102120.80
2019-04-01T07:41:48.511Z,102120.80
2019-04-01T07:43:23.947Z,102119.11
2019-04-01T07:44:58.702Z,102116.16
2019-04-01T07:46:33.428Z,102120.47
2019-04-01T07:48:08.186Z,102127.00
2019-04-01T07:49:43.117Z,102121.64
2019-04-01T07:51:17.773Z,102128.58
2019-04-01T07:52:55.462Z,102125.63
2019-04-01T07:54:29.278Z,102130.94
2019-04-01T07:56:03.930Z,102122.31
2019-04-01T07:57:38.827Z,102131.22
2019-04-01T07:59:13.545Z,102116.80
2019-04-01T08:00:48.275Z,102132.08
2019-04-01T08:02:23.070Z,102125.42
2019-04-01T08:03:57.740Z,102123.09
2019-04-01T08:05:32.471Z,102129.15
2019-04-01T08:07:07.228Z,102120.09
2019-04-01T08:08:42.006Z,102114.63
2019-04-01T08:10:16.850Z,102114.53
2019-04-01T08:11:51.515Z,102119.73
2019-04-01T08:13:26.578Z,102142.23
2019-04-01T08:15:01.337Z,102125.23
2019-04-01T08:16:37.124Z,102115.12
2019-04-01T08:18:11.859Z,102120.11
2019-04-01T08:19:46.485Z,102102.91
2019-04-01T08:21:21.586Z,102107.06
2019-04-01T08:22:56.287Z,102104.37
2019-04-01T08:24:30.997Z,102110.31
2019-04-01T08:26:05.771Z,102109.28
2019-04-01T08:27:40.835Z,102109.84
2019-04-01T08:29:29.525Z,102108.48
2019-04-01T08:30:51.952Z,102112.59
2019-04-01T08:32:26.590Z,102119.77
2019-04-01T08:34:01.321Z,102107.39
2019-04-01T08:35:36.017Z,102103.39
2019-04-01T08:37:10.824Z,102110.89
2019-04-01T08:38:45.467Z,102098.74
2019-04-01T08:40:21.156Z,102104.05
2019-04-01T08:41:55.867Z,102100.56
2019-04-01T08:43:30.545Z,102111.33
2019-04-01T08:45:06.243Z,102099.56
2019-04-01T08:46:40.951Z,102104.86
2019-04-01T08:48:15.687Z,102104.05
2019-04-01T08:49:50.679Z,102104.49
2019-04-01T08:51:25.339Z,102105.25
2019-04-01T08:53:00.003Z,102094.64
2019-04-01T08:54:34.658Z,102092.54
2019-04-01T08:56:09.387Z,102104.27
2019-04-01T08:57:44.068Z,102104.30
2019-04-01T08:59:18.799Z,102100.49
2019-04-01T09:00:53.555Z,102088.47
2019-04-01T09:02:29.263Z,102088.69
2019-04-01T09:04:04.080Z,102094.81
2019-04-01T09:05:38.791Z,102086.02
2019-04-01T09:07:13.456Z,102098.31
2019-04-01T09:08:48.997Z,102086.53
2019-04-01T09:10:23.729Z,102079.88
2019-04-01T09:11:59.152Z,102079.88
2019-04-01T09:13:34.154Z,102084.13
2019-04-01T09:15:10.203Z,102084.13
2019-04-01T09:16:45.332Z,102084.05
2019-04-01T09:18:20.061Z,102084.05
2019-04-01T09:19:54.743Z,102088.34
2019-04-01T09:21:29.371Z,102078.76
2019-04-01T09:23:05.006Z,102076.61
2019-04-01T09:24:39.673Z,102081.20
2019-04-01T09:26:14.297Z,102074.47
2019-04-01T09:27:49.067Z,102079.34
2019-04-01T09:29:23.740Z,102079.34
2019-04-01T09:30:58.389Z,102057.14
2019-04-01T09:32:33.047Z,102088.78
2019-04-01T09:34:07.691Z,102064.63
2019-04-01T09:35:42.419Z,102061.31
2019-04-01T09:37:18.469Z,102061.31
2019-04-01T09:38:53.133Z,102081.76
2019-04-01T09:40:27.886Z,102081.76
2019-04-01T09:42:02.616Z,102068.69
2019-04-01T09:43:37.292Z,102080.98
2019-04-01T09:45:12.155Z,102067.06
2019-04-01T09:46:48.930Z,102062.23
2019-04-01T09:48:23.774Z,102068.06
2019-04-01T09:49:58.639Z,102059.98
2019-04-01T09:51:47.540Z,102074.91
2019-04-01T09:53:09.646Z,102050.94
2019-04-01T09:54:44.320Z,102056.19
2019-04-01T09:56:18.977Z,102047.62
2019-04-01T09:57:54.818Z,102041.42
2019-04-01T09:59:29.453Z,102053.98
2019-04-01T10:01:04.234Z,102050.86
2019-04-01T10:02:38.877Z,102067.17
2019-04-01T10:04:13.521Z,102038.56
2019-04-01T10:05:48.163Z,102046.83
2019-04-01T10:07:22.964Z,102040.52
2019-04-01T10:08:58.348Z,102032.81
2019-04-01T10:10:33.050Z,102033.79
2019-04-01T10:12:07.838Z,102034.88
2019-04-01T10:13:42.676Z,102034.88
2019-04-01T10:15:17.395Z,102029.33
2019-04-01T10:16:52.161Z,102023.54
2019-04-01T10:18:26.847Z,102022.20
2019-04-01T10:20:01.692Z,102019.16
2019-04-01T10:21:36.596Z,102018.31
2019-04-01T10:23:11.224Z,102017.31
2019-04-01T10:24:45.932Z,102017.05
2019-04-01T10:26:20.661Z,102007.56
2019-04-01T10:27:55.357Z,102005.42
2019-04-01T10:29:30.012Z,102012.28
2019-04-01T10:31:04.897Z,102025.05
2019-04-01T10:32:39.613Z,102013.62
2019-04-01T10:34:14.339Z,102009.58
2019-04-01T10:35:49.027Z,102011.66
2019-04-01T10:37:23.716Z,102006.05
2019-04-01T10:38:59.435Z,101997.13
2019-04-01T10:40:34.167Z,101997.13
2019-04-01T10:42:08.904Z,101991.45
2019-04-01T10:43:43.569Z,101998.83
2019-04-01T10:45:18.558Z,101998.20
2019-04-01T10:46:53.323Z,101964.53
2019-04-01T10:48:28.013Z,101985.54
2019-04-01T10:50:02.802Z,102001.93
2019-04-01T10:51:37.670Z,101988.05
2019-04-01T10:53:13.275Z,101990.78
2019-04-01T10:54:48.053Z,101975.45
2019-04-01T10:56:22.798Z,101991.77
2019-04-01T10:57:57.556Z,101991.77
2019-04-01T10:59:32.399Z,101980.09
2019-04-01T11:01:07.198Z,101980.09
2019-04-01T11:02:42.013Z,101952.63
2019-04-01T11:04:16.651Z,101952.63
2019-04-01T11:05:51.367Z,101956.07
2019-04-01T11:07:26.026Z,101956.07
2019-04-01T11:09:00.709Z,101961.13
2019-04-01T11:10:36.525Z,101965.27
2019-04-01T11:12:11.328Z,101969.88
2019-04-01T11:13:45.967Z,101957.67
2019-04-01T11:15:21.356Z,101950.89
2019-04-01T11:16:55.989Z,101939.02
2019-04-01T11:18:30.638Z,101948.52
2019-04-01T11:20:08.086Z,101956.59
2019-04-01T11:21:42.793Z,101961.61
2019-04-01T11:23:17.563Z,101953.37
2019-04-01T11:24:52.283Z,101951.19
2019-04-01T11:26:26.929Z,101934.53
2019-04-01T11:28:01.599Z,101937.59
2019-04-01T11:29:36.317Z,101944.26
2019-04-01T11:31:11.120Z,101938.02
2019-04-01T11:32:45.763Z,101939.39
2019-04-01T11:34:20.356Z,101930.68
2019-04-01T11:35:55.115Z,101922.49
2019-04-01T11:37:29.797Z,101957.89
2019-04-01T11:39:06.415Z,101933.04
2019-04-01T11:40:41.185Z,101930.70
2019-04-01T11:42:16.041Z,101922.64
2019-04-01T11:43:50.645Z,101917.22
2019-04-01T11:45:25.305Z,101935.88
2019-04-01T11:47:00.345Z,101911.94
2019-04-01T11:48:34.988Z,101913.73
2019-04-01T11:50:10.046Z,101917.44
2019-04-01T11:51:44.693Z,101916.03
2019-04-01T11:53:19.355Z,101911.75
2019-04-01T11:54:54.091Z,101913.69
2019-04-01T11:56:28.810Z,101902.98
2019-04-01T11:58:03.581Z,101897.22
2019-04-01T11:59:38.369Z,101881.56
2019-04-01T12:01:12.949Z,101899.06
2019-04-01T12:02:48.891Z,101884.75
2019-04-01T12:04:23.515Z,101881.66
2019-04-01T12:05:58.208Z,101878.05
2019-04-01T12:07:32.852Z,101873.05
2019-04-01T12:09:08.290Z,101882.44
2019-04-01T12:10:43.261Z,101874.70
2019-04-01T12:12:24.037Z,101868.70
2019-04-01T12:13:54.316Z,101872.72
2019-04-01T12:15:28.981Z,101868.99
2019-04-01T12:17:03.648Z,101859.47
2019-04-01T12:18:38.272Z,101853.95
2019-04-01T12:20:14.093Z,101861.20
2019-04-01T12:21:48.760Z,101850.95
2019-04-01T12:23:23.403Z,101848.89
2019-04-01T12:24:58.075Z,101854.19
2019-04-01T12:26:32.744Z,101848.00
2019-04-01T12:28:07.508Z,101839.91
2019-04-01T12:29:42.181Z,101843.62
2019-04-01T12:31:17.021Z,101839.14
2019-04-01T12:32:51.677Z,101830.91
2019-04-01T12:34:26.328Z,101836.64
2019-04-01T12:36:00.986Z,101838.59
2019-04-01T12:37:35.610Z,101836.22
2019-04-01T12:39:10.252Z,101838.12
2019-04-01T12:40:45.876Z,101831.30
2019-04-01T12:42:20.595Z,101837.62
2019-04-01T12:43:55.301Z,101817.45
2019-04-01T12:45:30.122Z,101820.30
2019-04-01T12:47:05.046Z,101810.66
2019-04-01T12:48:39.700Z,101807.29
2019-04-01T12:50:14.538Z,101807.95
2019-04-01T12:51:50.230Z,101812.16
2019-04-01T12:53:24.857Z,101808.83
2019-04-01T12:55:01.080Z,101801.71
2019-04-01T12:56:36.106Z,101800.41
2019-04-01T12:58:10.899Z,101796.44
2019-04-01T12:59:46.006Z,101806.98
2019-04-01T13:01:20.858Z,101792.59
2019-04-01T13:02:55.460Z,101789.27
2019-04-01T13:04:30.127Z,101783.97
2019-04-01T13:06:05.920Z,101795.91
2019-04-01T13:07:41.554Z,101784.12
2019-04-01T13:09:16.303Z,101797.74
2019-04-01T13:10:50.925Z,101782.45
2019-04-01T13:12:27.536Z,101772.13
2019-04-01T13:14:01.923Z,101763.13
2019-04-01T13:15:36.679Z,101780.81
2019-04-01T13:17:11.468Z,101767.19
2019-04-01T13:18:47.270Z,101764.36
2019-04-01T13:20:36.628Z,101773.90
2019-04-01T13:21:58.750Z,101774.34
2019-04-01T13:23:33.358Z,101745.70
2019-04-01T13:25:08.320Z,101752.64
2019-04-01T13:26:43.109Z,101744.23
2019-04-01T13:28:17.766Z,101744.68
2019-04-01T13:29:52.901Z,101738.37
2019-04-01T13:31:27.634Z,101757.66
2019-04-01T13:33:02.330Z,101730.30
2019-04-01T13:34:37.039Z,101764.11
2019-04-01T13:36:11.677Z,101726.98
2019-04-01T13:37:46.990Z,101719.92
2019-04-01T13:39:21.835Z,101725.19
2019-04-01T13:40:56.578Z,101711.03
2019-04-01T13:42:31.291Z,101714.02
2019-04-01T13:44:08.807Z,101721.05
2019-04-01T13:45:42.309Z,101719.06
2019-04-01T13:47:16.951Z,101724.67
2019-04-01T13:48:58.028Z,101708.41
2019-04-01T13:50:28.140Z,101705.06
2019-04-01T13:52:03.787Z,101713.42
2019-04-01T13:53:38.484Z,101709.14
2019-04-01T13:55:13.286Z,101702.62
2019-04-01T13:56:47.961Z,101703.79
2019-04-01T13:58:22.914Z,101694.53
2019-04-01T13:59:57.586Z,101694.25
2019-04-01T14:01:32.228Z,101689.88
2019-04-01T14:03:07.090Z,101688.24
2019-04-01T14:04:41.824Z,101684.98
2019-04-01T14:06:17.447Z,101697.05
2019-04-01T14:07:52.088Z,101686.91
2019-04-01T14:09:26.762Z,101688.45
2019-04-01T14:11:01.446Z,101683.56
2019-04-01T14:12:36.171Z,101674.84
2019-04-01T14:14:10.847Z,101672.02
2019-04-01T14:15:45.483Z,101676.45
2019-04-01T14:17:20.225Z,101667.55
2019-04-01T14:18:54.874Z,101660.95
2019-04-01T14:20:29.552Z,101661.69
2019-04-01T14:22:05.368Z,101658.55
2019-04-01T14:23:40.003Z,101661.28
2019-04-01T14:25:14.723Z,101662.48
2019-04-01T14:26:49.372Z,101650.45
2019-04-01T14:28:24.087Z,101643.51
2019-04-01T14:29:58.730Z,101650.98
2019-04-01T14:31:33.480Z,101644.91
2019-04-01T14:33:08.082Z,101640.52
2019-04-01T14:34:42.832Z,101647.06
2019-04-01T14:36:17.481Z,101646.17
2019-04-01T14:37:52.172Z,101632.40
2019-04-01T14:39:26.818Z,101628.50
2019-04-01T14:41:01.802Z,101627.20
2019-04-01T14:42:37.304Z,101616.97
2019-04-01T14:44:12.193Z,101628.66
2019-04-01T14:45:46.848Z,101613.56
2019-04-01T14:47:21.505Z,101618.88
2019-04-01T14:48:56.170Z,101625.72
2019-04-01T14:50:30.894Z,101609.51
2019-04-01T14:52:05.916Z,101609.32
2019-04-01T14:53:40.578Z,101595.62
2019-04-01T14:55:15.232Z,101590.53
2019-04-01T14:56:49.884Z,101596.17
2019-04-01T14:58:25.062Z,101586.77
2019-04-01T14:59:59.736Z,101595.87
2019-04-01T15:01:35.523Z,101600.34
2019-04-01T15:03:11.166Z,101590.70
2019-04-01T15:04:45.840Z,101604.45
2019-04-01T15:06:20.551Z,101580.92
2019-04-01T15:07:55.211Z,101579.98
2019-04-01T15:09:29.866Z,101566.07
2019-04-01T15:11:04.735Z,101581.95
2019-04-01T15:12:39.641Z,101578.20
2019-04-01T15:14:15.838Z,101567.02
2019-04-01T15:15:50.508Z,101562.59
2019-04-01T15:17:25.141Z,101555.71
2019-04-01T15:18:59.855Z,101567.13
2019-04-01T15:20:34.593Z,101562.23
2019-04-01T15:22:09.311Z,101550.71
2019-04-01T15:23:44.026Z,101545.13
2019-04-01T15:25:18.781Z,101548.16
2019-04-01T15:26:53.425Z,101534.89
2019-04-01T15:28:28.088Z,101540.80
2019-04-01T15:30:02.871Z,101542.30
2019-04-01T15:31:38.393Z,101545.79
2019-04-01T15:33:13.042Z,101536.17
2019-04-01T15:34:47.743Z,101537.02
2019-04-01T15:36:22.376Z,101533.70
2019-04-01T15:37:57.049Z,101540.91
2019-04-01T15:39:31.768Z,101528.03
2019-04-01T15:41:06.457Z,101529.09
2019-04-01T15:42:41.176Z,101533.38
2019-04-01T15:44:15.837Z,101524.27
2019-04-01T15:45:50.522Z,101529.70
2019-04-01T15:47:25.179Z,101516.88
2019-04-01T15:48:59.851Z,101514.61
2019-04-01T15:50:34.569Z,101505.22
2019-04-01T15:52:09.317Z,101506.12
2019-04-01T15:53:44.003Z,101508.27
2019-04-01T15:55:18.690Z,101508.47
2019-04-01T15:56:53.328Z,101501.27
2019-04-01T15:58:27.992Z,101494.30
2019-04-01T16:00:03.409Z,101512.97
2019-04-01T16:01:38.261Z,101498.07
2019-04-01T16:03:12.974Z,101500.97
2019-04-01T16:04:47.664Z,101496.16
2019-04-01T16:06:23.721Z,101486.84
2019-04-01T16:07:59.444Z,101486.74
2019-04-01T16:09:34.191Z,101488.63
2019-04-01T16:11:08.878Z,101486.20
2019-04-01T16:12:45.181Z,101485.34
2019-04-01T16:14:19.978Z,101491.50
2019-04-01T16:15:55.048Z,101503.78
2019-04-01T16:17:29.681Z,101494.97
2019-04-01T16:19:04.401Z,101477.64
2019-04-01T16:20:41.362Z,101472.84
2019-04-01T16:22:15.994Z,101474.92
2019-04-01T16:23:50.658Z,101472.83
2019-04-01T16:25:25.327Z,101476.88
2019-04-01T16:27:00.005Z,101476.78
2019-04-01T16:28:34.668Z,101486.39
2019-04-01T16:30:09.456Z,101469.11
2019-04-01T16:31:44.156Z,101487.44
2019-04-01T16:33:20.115Z,101467.63
2019-04-01T16:34:54.776Z,101480.13
2019-04-01T16:36:29.405Z,101464.61
2019-04-01T16:38:04.123Z,101472.08
2019-04-01T16:39:38.792Z,101456.90
2019-04-01T16:41:15.801Z,101459.80
2019-04-01T16:42:51.228Z,101455.52
2019-04-01T16:44:25.987Z,101449.71
2019-04-01T16:46:00.643Z,101455.52
2019-04-01T16:47:35.358Z,101456.86
2019-04-01T16:49:10.097Z,101460.90
2019-04-01T16:50:44.849Z,101458.13
2019-04-01T16:52:19.568Z,101456.03
2019-04-01T16:53:56.086Z,101458.13
2019-04-01T16:55:30.553Z,101472.19
2019-04-01T16:57:06.305Z,101462.64
2019-04-01T16:58:41.013Z,101462.02
2019-04-01T17:00:16.976Z,101466.58
2019-04-01T17:01:52.350Z,101451.92
2019-04-01T17:03:27.315Z,101463.28
2019-04-01T17:05:01.938Z,101451.88
2019-04-01T17:06:37.128Z,101451.53
2019-04-01T17:08:13.120Z,101454.48
2019-04-01T17:09:47.844Z,101456.66
2019-04-01T17:11:22.559Z,101451.47
2019-04-01T17:12:57.305Z,101451.34
2019-04-01T17:14:31.971Z,101451.64
2019-04-01T17:16:06.895Z,101452.09
2019-04-01T17:17:41.540Z,101459.29
2019-04-01T17:19:17.133Z,101456.34
2019-04-01T17:20:51.908Z,101447.77
2019-04-01T17:22:26.556Z,101446.44
2019-04-01T17:24:01.275Z,101453.01
2019-04-01T17:25:35.908Z,101438.37
2019-04-01T17:27:12.153Z,101446.35
2019-04-01T17:28:46.824Z,101444.44
2019-04-01T17:30:21.736Z,101443.83
2019-04-01T17:31:56.383Z,101442.20
2019-04-01T17:33:31.098Z,101450.14
2019-04-01T17:35:05.867Z,101449.02
2019-04-01T17:36:40.547Z,101443.05
2019-04-01T17:38:15.286Z,101447.92
2019-04-01T17:39:49.923Z,101444.58
2019-04-01T17:41:24.563Z,101439.48
2019-04-01T17:42:59.316Z,101435.14
2019-04-01T17:44:34.049Z,101434.30
2019-04-01T17:46:09.030Z,101437.88
2019-04-01T17:47:43.658Z,101434.02
2019-04-01T17:49:18.280Z,101432.75
2019-04-01T17:50:53.992Z,101431.03
2019-04-01T17:52:28.625Z,101425.49
2019-04-01T17:54:03.258Z,101427.22
2019-04-01T17:55:39.024Z,101430.07
2019-04-01T17:57:13.667Z,101446.78
2019-04-01T17:58:48.278Z,101421.98
2019-04-01T18:00:25.081Z,101420.08
2019-04-01T18:02:00.061Z,101424.65
2019-04-01T18:03:34.691Z,101424.02